KMDRIDGE9 Weather Reports


Display with metric or nautical units.
time (UTC)temp
F
wind
direction
speed
MPH
gust
MPH
rain 1hr
in
rain 24hr
in
rain mn
in
humidity
%
barometer
mb
20200702151640 79 51 4.0 5.0 0.00 0.01 0.00 1012.6
20200702150259 79 44 4.0 10.0 0.00 0.01 0.00 1012.5
20200702144613 80 38 4.0 9.0 0.00 0.01 0.00 1012.5
20200702143127 80 35 5.0 10.0 0.00 0.01 0.00 1012.5
20200702141650 79 41 3.0 9.0 0.00 0.01 0.00 1012.5
20200702140151 78 42 6.0 13.0 0.00 0.01 0.00 1012.4
20200702134726 78 59 6.0 10.0 0.00 0.01 0.00 1012.4
20200702133157 78 59 6.0 10.0 0.00 0.01 0.00 1012.4
20200702131612 78 59 4.0 7.0 0.00 0.01 0.00 1012.3
20200702130245 78 39 3.0 7.0 0.00 0.01 0.00 1012.2
20200702124716 80 44 5.0 9.0 0.00 0.01 0.00 1012.0
20200702123207 80 5 3.0 7.0 0.00 0.01 0.00 1012.0
20200702121645 81 11 2.0 5.0 0.00 0.01 0.00 1011.9
20200702120131 82 276 3.0 7.0 0.00 0.01 0.00 2 1011.9
20200702114632 82 278 2.0 6.0 0.00 0.01 0.00 7 1011.8
20200702113152 81 244 2.0 5.0 0.00 0.01 0.00 1011.8
20200702111730 79 250 2.0 5.0 0.00 0.01 0.00 1011.8
20200702110239 78 242 2.0 6.0 0.00 0.01 0.00 1011.6
20200702104656 76 267 3.0 6.0 0.00 0.01 0.00 1011.4
20200702103143 74 5 1.0 3.0 0.00 0.01 0.00 1011.4
20200702101634 73 5 2.0 4.0 0.00 0.01 0.00 1011.3
20200702100213 73 5 2.0 5.0 0.00 0.01 0.00 1011.2
20200702094703 72 279 3.0 7.0 0.00 0.01 0.00 1011.1
20200702093257 72 280 2.0 6.0 0.00 0.01 0.00 1010.9
20200702090131 72 265 2.0 4.0 0.00 0.01 0.00 1010.8
20200702084745 72 265 2.0 6.0 0.00 0.01 0.00 1010.8
20200702083131 72 243 1.0 4.0 0.00 0.01 0.00 1010.8
20200702081646 72 243 1.0 3.0 0.00 0.01 0.00 1010.7
20200702080202 72 243 1.0 3.0 0.00 0.01 0.00 1010.6
20200702074640 73 243 1.0 4.0 0.00 0.01 0.00 1010.6
20200702073246 73 243 1.0 3.0 0.00 0.01 0.00 1010.7
20200702071722 73 243 2.0 4.0 0.00 0.01 0.00 1010.7
20200702070336 73 221 1.0 3.0 0.00 0.01 0.00 1010.7
20200702064615 73 221 2.0 4.0 0.00 0.01 0.00 1010.8
20200702063123 73 220 1.0 3.0 0.00 0.01 0.00 1010.9
20200702061618 73 220 1.0 3.0 0.00 0.01 0.00 1011.1
20200702060120 73 220 0.0 3.0 0.00 0.01 0.00 1011.1
20200702054714 73 220 1.0 3.0 0.00 0.01 0.00 1011.1
20200702053216 73 220 2.0 3.0 0.00 0.01 0.00 1011.2
20200702051607 74 220 1.0 3.0 0.00 0.01 0.00 1011.3
20200702050105 74 227 2.0 4.0 0.00 0.01 0.00 1011.1
20200702044713 74 237 2.0 4.0 0.00 0.01 0.00 1011.3
20200702043116 74 236 2.0 4.0 0.00 0.01 0.00 1011.4
20200702041618 73 222 2.0 4.0 0.00 0.01 0.00 1011.6
20200702040147 73 222 1.0 3.0 0.00 0.01 0.00 1011.6
20200702034704 74 224 2.0 5.0 0.00 0.01 0.01 1011.6
20200702033130 74 209 2.0 4.0 0.00 0.01 0.01 1011.9
20200702031650 74 227 1.0 4.0 0.00 0.01 0.01 1011.8
20200702030144 74 238 1.0 4.0 0.00 0.01 0.01 1011.7
20200702024617 74 190 1.0 4.0 0.00 0.01 0.01 1011.8
20200702023145 74 198 1.0 4.0 0.00 0.01 0.01 1011.6
20200702021613 75 215 2.0 5.0 0.00 0.01 0.01 1011.3
20200702020221 75 177 3.0 7.0 0.00 0.01 0.01 1011.4
20200702014616 75 159 3.0 10.0 0.00 0.01 0.01 1011.2
20200702013141 76 176 3.0 10.0 0.00 0.01 0.01 1011.0
20200702011628 76 163 2.0 8.0 0.00 0.01 0.01 1011.0
20200702010203 77 162 3.0 11.0 0.00 0.01 0.01 1011.0
20200702004652 77 164 2.0 8.0 0.00 0.01 0.01 1011.1
20200702003145 78 153 3.0 7.0 0.00 0.01 0.01 1 1011.0
20200702001635 79 222 1.0 3.0 0.00 0.01 0.01 12 1011.1
20200702000112 79 0 0.0 2.0 0.00 0.01 0.01 23 1010.8
20200701234617 79 222 1.0 3.0 0.00 0.01 0.01 30 1010.7
20200701233106 80 222 1.0 4.0 0.00 0.01 0.01 36 1010.7
20200701231620 80 190 2.0 4.0 0.00 0.01 0.01 42 1010.6
20200701230259 81 184 2.0 4.0 0.00 0.01 0.01 43 1010.5
20200701224650 81 0 1.0 4.0 0.00 0.01 0.01 41 1010.3
20200701223118 81 180 2.0 5.0 0.00 0.01 0.01 45 1010.0
20200701221705 81 0 2.0 9.0 0.00 0.01 0.01 46 1009.8
20200701220208 81 196 4.0 9.0 0.00 0.01 0.01 37 1009.9
20200701214625 81 169 4.0 9.0 0.00 0.01 0.01 38 1010.2
20200701213056 82 163 4.0 8.0 0.00 0.01 0.01 39 1010.4
20200701211650 81 140 4.0 10.0 0.00 0.01 0.01 36 1010.3
20200701210154 82 154 3.0 7.0 0.00 0.01 0.01 34 1010.6
20200701204632 80 0 3.0 11.0 0.00 0.01 0.01 21 1010.8
20200701203144 80 155 8.0 14.0 0.00 0.01 0.01 21 1010.8
20200701201630 79 134 3.0 11.0 0.00 0.01 0.01 1 1011.1
20200701200155 78 136 2.0 16.0 0.00 0.01 0.01 1011.3
20200701194642 78 92 1.0 9.0 0.00 0.01 0.01 1011.6
20200701193116 77 90 2.0 9.0 0.00 0.01 0.01 1011.5
20200701191754 76 88 7.0 10.0 0.00 0.01 0.01 1011.2
20200701190243 76 94 6.0 9.0 0.00 0.01 0.01 1010.9
20200701184717 76 97 3.0 7.0 0.00 0.01 0.01 1011.1
20200701183144 76 48 2.0 4.0 0.00 0.01 0.01 1011.2
20200701181642 76 87 2.0 4.0 0.00 0.01 0.01 1011.4
20200701180144 76 87 2.0 5.0 0.01 0.01 0.01 1012.0
20200701174651 75 82 3.0 7.0 0.01 0.01 0.01 1011.5
20200701173220 74 74 3.0 7.0 0.01 0.01 0.01 1012.0
20200701171641 75 37 5.0 9.0 0.01 0.01 0.01 1012.0
20200701170121 76 63 3.0 5.0 0.00 0.00 0.00 1012.0
20200701164813 76 92 1.0 10.0 0.00 0.00 0.00 1012.5
20200701163132 76 88 6.0 13.0 0.00 0.00 0.00 1012.3
20200701161715 75 93 9.0 13.0 0.00 0.00 0.00 1012.3
20200701160202 76 85 10.0 13.0 0.00 0.00 0.00 1012.2
20200701154613 77 142 1.0 11.0 0.00 0.00 0.00 1012.4
20200701153306 76 75 5.0 10.0 0.00 0.00 0.00 1012.5